createdAt,value
2017-10-17T00:00:26.721Z,8.70
2017-10-17T00:03:52.379Z,8.87
2017-10-17T00:07:17.742Z,8.30
2017-10-17T00:10:43.287Z,9.60
2017-10-17T00:14:09.574Z,8.50
2017-10-17T00:17:36.014Z,9.40
2017-10-17T00:21:02.015Z,9.27
2017-10-17T00:24:27.879Z,8.23
2017-10-17T00:27:54.261Z,8.37
2017-10-17T00:31:23.198Z,8.37
2017-10-17T00:34:52.574Z,9.03
2017-10-17T00:38:19.533Z,8.33
2017-10-17T00:41:46.502Z,8.53
2017-10-17T00:45:12.407Z,9.17
2017-10-17T00:48:37.982Z,8.90
2017-10-17T00:52:03.854Z,8.30
2017-10-17T00:55:34.379Z,8.30
2017-10-17T00:59:00.114Z,8.80
2017-10-17T01:02:26.052Z,9.60
2017-10-17T01:05:52.502Z,7.73
2017-10-17T01:09:19.144Z,8.97
2017-10-17T01:12:44.636Z,8.27
2017-10-17T01:16:11.317Z,8.53
2017-10-17T01:19:36.983Z,9.03
2017-10-17T01:23:02.875Z,7.87
2017-10-17T01:26:33.178Z,8.70
2017-10-17T01:29:59.621Z,7.97
2017-10-17T01:33:25.390Z,8.60
2017-10-17T01:36:51.214Z,7.07
2017-10-17T01:40:18.401Z,9.00
2017-10-17T01:43:46.782Z,8.60
2017-10-17T01:47:14.368Z,7.90
2017-10-17T01:50:40.597Z,8.20
2017-10-17T01:54:06.682Z,7.80
2017-10-17T01:57:34.723Z,7.20
2017-10-17T02:01:03.271Z,7.93
2017-10-17T02:04:29.560Z,9.47
2017-10-17T02:07:57.461Z,8.03
2017-10-17T02:11:23.278Z,8.50
2017-10-17T02:14:48.985Z,8.87
2017-10-17T02:18:15.744Z,8.57
2017-10-17T02:21:41.269Z,9.30
2017-10-17T02:25:07.361Z,8.47
2017-10-17T02:28:33.897Z,8.17
2017-10-17T02:32:00.929Z,8.23
2017-10-17T02:35:26.297Z,8.90
2017-10-17T02:38:53.134Z,8.40
2017-10-17T02:42:19.261Z,7.53
2017-10-17T02:45:45.032Z,8.50
2017-10-17T02:49:10.854Z,8.73
2017-10-17T02:52:37.375Z,8.83
2017-10-17T02:56:04.700Z,8.23
2017-10-17T02:59:32.069Z,8.10
2017-10-17T03:02:57.576Z,8.17
2017-10-17T03:06:24.468Z,7.03
2017-10-17T03:09:50.156Z,8.00
2017-10-17T03:13:16.121Z,7.50
2017-10-17T03:16:41.668Z,7.97
2017-10-17T03:20:07.318Z,7.13
2017-10-17T03:23:33.807Z,8.50
2017-10-17T03:26:59.957Z,8.50
2017-10-17T03:30:25.910Z,8.20
2017-10-17T03:33:52.689Z,8.47
2017-10-17T03:37:20.785Z,7.53
2017-10-17T03:40:47.247Z,7.93
2017-10-17T03:44:12.801Z,7.53
2017-10-17T03:47:38.635Z,7.87
2017-10-17T03:51:05.366Z,7.90
2017-10-17T03:54:30.911Z,7.73
2017-10-17T03:58:00.678Z,7.90
2017-10-17T04:01:26.194Z,7.80
2017-10-17T04:04:51.624Z,8.00
2017-10-17T04:08:17.876Z,7.70
2017-10-17T04:11:43.524Z,7.20
2017-10-17T04:15:09.463Z,7.70
2017-10-17T04:18:37.373Z,8.07
2017-10-17T04:22:03.930Z,7.03
2017-10-17T04:25:31.907Z,6.37
2017-10-17T04:28:59.631Z,6.70
2017-10-17T04:32:25.189Z,7.80
2017-10-17T04:35:51.721Z,6.73
2017-10-17T04:39:17.249Z,6.80
2017-10-17T04:42:51.597Z,6.70
2017-10-17T04:46:18.940Z,7.30
2017-10-17T04:49:48.300Z,6.83
2017-10-17T04:53:21.853Z,6.77
2017-10-17T04:56:47.404Z,7.40
2017-10-17T05:00:15.245Z,7.00
2017-10-17T05:03:53.775Z,7.77
2017-10-17T05:07:19.234Z,7.70
2017-10-17T05:10:49.096Z,7.30
2017-10-17T05:14:14.428Z,6.77
2017-10-17T05:17:39.937Z,6.77
2017-10-17T05:21:05.726Z,6.20
2017-10-17T05:24:32.207Z,7.43
2017-10-17T05:28:03.735Z,7.20
2017-10-17T05:31:30.219Z,7.23
2017-10-17T05:34:56.630Z,7.13
2017-10-17T05:38:23.785Z,6.57
2017-10-17T05:41:50.237Z,5.83
2017-10-17T05:45:15.946Z,7.27
2017-10-17T05:48:41.208Z,7.37
2017-10-17T05:52:09.081Z,7.20
2017-10-17T05:55:35.430Z,7.80
2017-10-17T05:59:04.376Z,8.07
2017-10-17T06:02:36.535Z,7.67
2017-10-17T06:06:02.015Z,7.70
2017-10-17T06:09:27.265Z,8.30
2017-10-17T06:12:52.428Z,8.80
2017-10-17T06:16:18.688Z,9.53
2017-10-17T06:19:44.308Z,8.57
2017-10-17T06:23:11.201Z,8.50
2017-10-17T06:26:38.285Z,8.47
2017-10-17T06:30:05.144Z,9.60
2017-10-17T06:33:30.598Z,10.03
2017-10-17T06:36:55.915Z,9.07
2017-10-17T06:40:26.302Z,10.17
2017-10-17T06:43:51.480Z,11.60
2017-10-17T06:47:17.115Z,9.70
2017-10-17T06:50:44.250Z,10.73
2017-10-17T06:54:09.828Z,10.30
2017-10-17T06:57:35.612Z,11.83
2017-10-17T07:04:43.549Z,11.10
2017-10-17T07:08:16.577Z,13.30
2017-10-17T07:11:43.205Z,12.20
2017-10-17T07:15:09.203Z,10.60
2017-10-17T07:18:35.533Z,12.00
2017-10-17T07:22:01.462Z,11.73
2017-10-17T07:25:28.717Z,13.03
2017-10-17T07:28:54.661Z,11.43
2017-10-17T07:32:20.817Z,11.57
2017-10-17T07:35:46.159Z,13.30
2017-10-17T07:39:20.282Z,11.83
2017-10-17T07:42:49.755Z,10.50
2017-10-17T07:46:15.697Z,10.83
2017-10-17T07:49:41.550Z,10.87
2017-10-17T07:53:15.362Z,12.10
2017-10-17T07:56:44.934Z,11.70
2017-10-17T08:00:14.754Z,11.03
2017-10-17T08:03:41.925Z,11.90
2017-10-17T08:07:07.978Z,11.10
2017-10-17T08:10:33.248Z,11.40
2017-10-17T08:14:00.118Z,11.67
2017-10-17T08:17:26.961Z,11.93
2017-10-17T08:20:52.716Z,11.23
2017-10-17T08:24:23.388Z,9.97
2017-10-17T08:27:48.498Z,11.87
2017-10-17T08:31:15.669Z,10.93
2017-10-17T08:35:00.223Z,9.90
2017-10-17T08:38:27.624Z,10.57
2017-10-17T08:41:53.002Z,11.23
2017-10-17T08:45:18.632Z,10.80
2017-10-17T08:48:48.190Z,10.10
2017-10-17T08:52:18.979Z,9.67
2017-10-17T08:55:44.535Z,10.37
2017-10-17T08:59:14.309Z,9.93
2017-10-17T09:02:39.454Z,10.70
2017-10-17T09:06:10.067Z,10.00
2017-10-17T09:09:35.277Z,10.80
2017-10-17T09:13:00.358Z,10.70
2017-10-17T09:16:26.666Z,10.20
2017-10-17T09:19:53.091Z,10.73
2017-10-17T09:23:20.361Z,11.27
2017-10-17T09:26:48.433Z,10.63
2017-10-17T09:30:15.038Z,10.73
2017-10-17T09:33:42.574Z,11.27
2017-10-17T09:37:08.369Z,11.50
2017-10-17T09:40:38.698Z,11.20
2017-10-17T09:44:05.041Z,11.77
2017-10-17T09:47:31.447Z,12.10
2017-10-17T09:50:58.530Z,10.70
2017-10-17T09:54:30.246Z,10.80
2017-10-17T09:57:55.453Z,10.60
2017-10-17T10:01:25.755Z,9.93
2017-10-17T10:04:51.134Z,10.20
2017-10-17T10:08:17.759Z,11.43
2017-10-17T10:11:44.508Z,10.53
2017-10-17T10:15:31.683Z,10.67
2017-10-17T10:18:58.773Z,11.33
2017-10-17T10:25:55.146Z,12.37
2017-10-17T10:29:21.344Z,10.63
2017-10-17T10:32:46.814Z,11.30
2017-10-17T10:36:15.655Z,10.70
2017-10-17T10:39:43.232Z,10.90
2017-10-17T10:43:14.739Z,11.00
2017-10-17T10:46:51.333Z,10.80
2017-10-17T10:50:17.971Z,11.37
2017-10-17T10:53:44.815Z,13.03
2017-10-17T10:57:10.155Z,11.60
2017-10-17T11:00:40.390Z,12.90
2017-10-17T11:04:06.742Z,12.77
2017-10-17T11:07:32.678Z,13.57
2017-10-17T11:11:03.622Z,13.30
2017-10-17T11:14:30.129Z,15.30
2017-10-17T11:17:56.153Z,16.30
2017-10-17T11:21:22.742Z,15.30
2017-10-17T11:24:50.401Z,14.33
2017-10-17T11:28:15.800Z,15.87
2017-10-17T11:31:42.032Z,15.20
2017-10-17T11:35:15.493Z,16.20
2017-10-17T11:38:41.276Z,16.30
2017-10-17T11:44:17.102Z,15.23
2017-10-17T11:47:42.281Z,14.43
2017-10-17T11:51:08.105Z,14.97
2017-10-17T11:54:33.237Z,14.77
2017-10-17T11:57:58.386Z,13.50
2017-10-17T12:01:28.266Z,14.40
2017-10-17T12:04:53.762Z,14.37
2017-10-17T12:08:30.310Z,13.77
2017-10-17T12:12:00.734Z,15.30
2017-10-17T12:15:26.745Z,15.93
2017-10-17T12:18:52.648Z,14.77
2017-10-17T12:22:20.392Z,15.33
2017-10-17T12:25:48.622Z,14.97
2017-10-17T12:29:13.808Z,14.83
2017-10-17T12:32:39.036Z,14.37
2017-10-17T12:36:06.417Z,16.00
2017-10-17T12:39:31.906Z,15.40
2017-10-17T12:42:57.194Z,14.53
2017-10-17T12:46:30.023Z,13.70
2017-10-17T12:49:55.375Z,16.00
2017-10-17T12:53:22.713Z,12.90
2017-10-17T12:56:52.483Z,15.50
2017-10-17T13:00:22.141Z,15.10
2017-10-17T13:03:47.533Z,14.40
2017-10-17T13:11:06.437Z,13.97
2017-10-17T13:14:32.069Z,14.60
2017-10-17T13:17:58.829Z,14.30
2017-10-17T13:21:26.598Z,14.90
2017-10-17T13:25:07.379Z,14.03
2017-10-17T13:28:32.956Z,14.93
2017-10-17T13:32:02.717Z,13.57
2017-10-17T13:35:28.857Z,13.83
2017-10-17T13:38:58.679Z,14.80
2017-10-17T13:45:54.767Z,14.07
2017-10-17T13:49:24.503Z,14.43
2017-10-17T13:52:50.664Z,13.70
2017-10-17T13:56:15.775Z,13.47
2017-10-17T13:59:42.669Z,13.80
2017-10-17T14:06:39.735Z,14.77
2017-10-17T14:10:05.678Z,13.40
2017-10-17T14:13:40.785Z,13.80
2017-10-17T14:17:12.331Z,13.57
2017-10-17T14:20:39.332Z,13.40
2017-10-17T14:24:13.669Z,14.33
2017-10-17T14:31:17.083Z,14.03
2017-10-17T14:34:46.606Z,13.43
2017-10-17T14:38:17.477Z,14.00
2017-10-17T14:41:43.908Z,13.63
2017-10-17T14:45:13.117Z,12.90
2017-10-17T14:48:38.709Z,12.70
2017-10-17T14:52:04.698Z,13.77
2017-10-17T14:55:30.380Z,13.57
2017-10-17T14:58:55.810Z,13.90
2017-10-17T15:02:21.351Z,13.47
2017-10-17T15:05:46.862Z,12.67
2017-10-17T15:09:24.270Z,13.60
2017-10-17T15:12:53.795Z,12.93
2017-10-17T15:19:52.147Z,13.63
2017-10-17T15:23:21.910Z,12.80
2017-10-17T15:26:47.267Z,12.90
2017-10-17T15:30:12.779Z,12.13
2017-10-17T15:51:17.742Z,12.90
2017-10-17T15:54:44.182Z,11.97
2017-10-17T15:58:13.925Z,12.27
2017-10-17T16:01:41.303Z,14.20
2017-10-17T16:05:06.454Z,13.20
2017-10-17T16:08:48.613Z,12.57
2017-10-17T16:12:20.658Z,13.00
2017-10-17T16:15:46.138Z,12.33
2017-10-17T16:19:11.889Z,12.67
2017-10-17T16:22:38.873Z,12.43
2017-10-17T16:26:12.859Z,13.93
2017-10-17T16:29:40.815Z,14.97
2017-10-17T16:33:15.396Z,19.33
2017-10-17T16:50:42.865Z,22.03
2017-10-17T16:54:08.332Z,19.37
2017-10-17T16:57:39.168Z,17.53
2017-10-17T17:01:05.865Z,17.10
2017-10-17T17:04:31.778Z,17.23
2017-10-17T17:07:58.075Z,16.90
2017-10-17T17:11:25.406Z,16.07
2017-10-17T17:15:05.823Z,16.27
2017-10-17T17:18:32.321Z,17.03
2017-10-17T17:21:57.835Z,15.70
2017-10-17T17:25:23.738Z,15.00
2017-10-17T17:28:49.604Z,14.70
2017-10-17T17:32:15.362Z,14.67
2017-10-17T17:35:41.213Z,16.23
2017-10-17T17:39:06.827Z,16.77
2017-10-17T17:42:32.634Z,15.97
2017-10-17T17:46:00.278Z,15.50
2017-10-17T17:49:28.234Z,15.60
2017-10-17T17:53:00.460Z,14.20
2017-10-17T17:56:26.358Z,15.67
2017-10-17T17:59:54.944Z,14.53
2017-10-17T18:03:23.949Z,14.77
2017-10-17T18:06:49.684Z,15.17
2017-10-17T18:10:15.650Z,15.20
2017-10-17T18:13:41.304Z,14.53
2017-10-17T18:17:07.509Z,14.53
2017-10-17T18:20:33.133Z,13.30
2017-10-17T18:23:58.691Z,13.50
2017-10-17T18:27:24.662Z,13.60
2017-10-17T18:30:50.385Z,12.40
2017-10-17T18:34:20.821Z,13.47
2017-10-17T18:37:47.921Z,13.90
2017-10-17T18:44:49.329Z,13.30
2017-10-17T18:48:16.260Z,15.33
2017-10-17T18:51:42.372Z,12.70
2017-10-17T18:55:08.003Z,13.43
2017-10-17T18:58:33.682Z,12.53
2017-10-17T19:02:08.556Z,13.30
2017-10-17T19:05:39.892Z,13.47
2017-10-17T19:09:06.074Z,12.73
2017-10-17T19:12:32.875Z,12.73
2017-10-17T19:15:58.429Z,13.77
2017-10-17T19:19:23.796Z,14.83
2017-10-17T19:22:49.901Z,13.20
2017-10-17T19:26:15.576Z,13.37
2017-10-17T19:29:41.187Z,13.73
2017-10-17T19:33:07.735Z,14.97
2017-10-17T19:36:33.971Z,12.90
2017-10-17T19:39:59.360Z,12.57
2017-10-17T19:43:25.768Z,12.63
2017-10-17T19:46:52.334Z,13.50
2017-10-17T19:50:19.650Z,13.97
2017-10-17T19:53:46.666Z,13.60
2017-10-17T19:57:12.130Z,14.17
2017-10-17T20:00:37.806Z,12.43
2017-10-17T20:04:05.729Z,13.90
2017-10-17T20:07:33.150Z,12.90
2017-10-17T20:11:04.458Z,13.20
2017-10-17T20:14:30.967Z,12.57
2017-10-17T20:17:56.774Z,12.40
2017-10-17T20:21:23.818Z,12.47
2017-10-17T20:24:49.378Z,13.10
2017-10-17T20:28:15.414Z,12.37
2017-10-17T20:31:40.924Z,12.70
2017-10-17T20:35:06.548Z,13.23
2017-10-17T20:38:33.734Z,13.53
2017-10-17T20:42:00.012Z,14.30
2017-10-17T20:45:25.469Z,12.27
2017-10-17T20:48:51.238Z,12.37
2017-10-17T20:52:16.798Z,12.50
2017-10-17T20:55:42.388Z,13.30
2017-10-17T20:59:08.095Z,12.70
2017-10-17T21:02:33.946Z,12.27
2017-10-17T21:05:59.437Z,12.90
2017-10-17T21:09:25.380Z,14.07
2017-10-17T21:12:50.904Z,12.60
2017-10-17T21:16:16.839Z,12.40
2017-10-17T21:19:42.678Z,12.30
2017-10-17T21:23:08.433Z,12.07
2017-10-17T21:26:35.393Z,11.80
2017-10-17T21:30:01.936Z,12.47
2017-10-17T21:33:27.359Z,12.23
2017-10-17T21:36:53.512Z,11.97
2017-10-17T21:40:19.813Z,12.73
2017-10-17T21:43:45.357Z,12.60
2017-10-17T21:47:12.009Z,11.10
2017-10-17T21:50:37.902Z,11.77
2017-10-17T21:54:03.386Z,11.07
2017-10-17T21:57:28.789Z,12.40
2017-10-17T22:01:03.239Z,12.67
2017-10-17T22:04:30.134Z,11.20
2017-10-17T22:07:56.055Z,11.97
2017-10-17T22:11:22.897Z,12.50
2017-10-17T22:14:48.325Z,11.83
2017-10-17T22:18:14.789Z,11.60
2017-10-17T22:21:40.404Z,11.60
2017-10-17T22:25:06.254Z,12.17
2017-10-17T22:28:32.141Z,12.30
2017-10-17T22:31:57.753Z,12.17
2017-10-17T22:35:23.259Z,11.43
2017-10-17T22:38:49.189Z,11.50
2017-10-17T22:42:14.717Z,11.70
2017-10-17T22:45:40.129Z,13.70
2017-10-17T22:49:06.006Z,12.03
2017-10-17T22:52:31.337Z,11.50
2017-10-17T22:55:56.734Z,12.50
2017-10-17T22:59:22.697Z,12.30
2017-10-17T23:02:48.173Z,11.37
2017-10-17T23:06:13.754Z,12.00
2017-10-17T23:09:39.461Z,12.97
2017-10-17T23:13:05.001Z,11.70
2017-10-17T23:16:30.880Z,12.00
2017-10-17T23:20:38.830Z,11.00
2017-10-17T23:24:04.368Z,11.73
2017-10-17T23:27:29.813Z,12.33
2017-10-17T23:30:56.461Z,11.37
2017-10-17T23:34:21.832Z,11.33
2017-10-17T23:37:48.274Z,12.50
2017-10-17T23:41:15.034Z,11.70
2017-10-17T23:44:40.976Z,11.13
2017-10-17T23:48:06.265Z,11.57
2017-10-17T23:51:34.687Z,11.17
2017-10-17T23:55:00.381Z,11.50
2017-10-17T23:58:26.113Z,11.10
